createdAt,value
2022-11-27T00:01:20.863Z,8.00
2022-11-27T00:03:48.126Z,7.98
2022-11-27T00:06:20.977Z,7.94
2022-11-27T00:08:48.287Z,7.93
2022-11-27T00:11:17.925Z,7.90
2022-11-27T00:13:45.211Z,7.89
2022-11-27T00:16:12.453Z,7.87
2022-11-27T00:18:39.239Z,7.84
2022-11-27T00:21:08.891Z,7.82
2022-11-27T00:23:35.403Z,7.82
2022-11-27T00:26:02.946Z,7.79
2022-11-27T00:28:29.897Z,7.79
2022-11-27T00:31:01.411Z,7.75
2022-11-27T00:33:28.040Z,7.76
2022-11-27T00:35:54.517Z,7.74
2022-11-27T00:38:20.996Z,7.73
2022-11-27T00:40:47.788Z,7.71
2022-11-27T00:43:14.167Z,7.70
2022-11-27T00:45:40.532Z,7.68
2022-11-27T00:48:06.932Z,7.67
2022-11-27T00:50:33.337Z,7.67
2022-11-27T00:52:59.821Z,7.66
2022-11-27T00:55:26.721Z,7.66
2022-11-27T00:57:53.117Z,7.64
2022-11-27T01:00:19.837Z,7.63
2022-11-27T01:02:46.345Z,7.63
2022-11-27T01:05:12.975Z,7.60
2022-11-27T01:07:39.441Z,7.59
2022-11-27T01:10:06.745Z,7.60
2022-11-27T01:12:33.112Z,7.58
2022-11-27T01:14:59.579Z,7.57
2022-11-27T01:17:25.951Z,7.55
2022-11-27T01:19:52.343Z,7.55
2022-11-27T01:22:18.718Z,7.55
2022-11-27T01:24:45.155Z,7.53
2022-11-27T01:27:11.555Z,7.53
2022-11-27T01:29:37.920Z,7.52
2022-11-27T01:32:04.523Z,7.51
2022-11-27T01:34:30.919Z,7.49
2022-11-27T01:36:57.304Z,7.48
2022-11-27T01:39:24.703Z,7.47
2022-11-27T01:41:51.288Z,7.47
2022-11-27T01:44:23.488Z,7.45
2022-11-27T01:47:22.024Z,7.42
2022-11-27T01:49:51.950Z,7.43
2022-11-27T01:52:27.635Z,7.39
2022-11-27T01:55:08.968Z,7.37
2022-11-27T01:57:44.571Z,7.39
2022-11-27T02:00:14.006Z,7.39
2022-11-27T02:02:41.865Z,7.38
2022-11-27T02:05:09.460Z,7.39
2022-11-27T02:07:36.360Z,7.37
2022-11-27T02:10:04.673Z,7.36
2022-11-27T02:12:52.086Z,7.32
2022-11-27T02:15:37.888Z,7.30
2022-11-27T02:18:09.983Z,7.34
2022-11-27T02:21:01.058Z,7.29
2022-11-27T02:23:47.618Z,7.27
2022-11-27T02:26:51.838Z,7.25
2022-11-27T02:29:23.282Z,7.25
2022-11-27T02:32:08.298Z,7.25
2022-11-27T02:35:02.598Z,7.19
2022-11-27T02:37:31.999Z,7.21
2022-11-27T02:40:23.686Z,7.16
2022-11-27T02:42:59.448Z,7.16
2022-11-27T02:45:34.641Z,7.13
2022-11-27T02:48:02.155Z,7.13
2022-11-27T02:50:32.153Z,7.11
2022-11-27T02:53:03.972Z,7.09
2022-11-27T02:55:33.466Z,7.06
2022-11-27T02:58:02.052Z,7.03
2022-11-27T03:00:30.168Z,7.02
2022-11-27T03:03:01.927Z,7.00
2022-11-27T03:05:32.616Z,6.99
2022-11-27T03:08:13.425Z,6.97
2022-11-27T03:11:15.912Z,6.95
2022-11-27T03:13:46.608Z,6.99
2022-11-27T03:16:24.873Z,6.99
2022-11-27T03:19:03.628Z,6.99
2022-11-27T03:21:35.912Z,6.98
2022-11-27T03:24:02.684Z,6.97
2022-11-27T03:26:29.149Z,6.95
2022-11-27T03:28:56.970Z,6.95
2022-11-27T03:31:24.077Z,6.93
2022-11-27T03:33:51.151Z,6.93
2022-11-27T03:36:21.063Z,6.90
2022-11-27T03:38:49.778Z,6.90
2022-11-27T03:41:21.296Z,6.90
2022-11-27T03:44:23.681Z,6.85
2022-11-27T03:47:27.547Z,6.85
2022-11-27T03:50:05.428Z,6.85
2022-11-27T03:53:13.821Z,6.79
2022-11-27T03:55:49.514Z,6.81
2022-11-27T03:58:34.772Z,6.74
2022-11-27T04:01:04.458Z,6.74
2022-11-27T04:03:31.568Z,6.72
2022-11-27T04:05:58.221Z,6.71
2022-11-27T04:08:25.097Z,6.69
2022-11-27T04:10:51.477Z,6.68
2022-11-27T04:13:17.861Z,6.66
2022-11-27T04:15:44.286Z,6.65
2022-11-27T04:18:10.753Z,6.64
2022-11-27T04:20:37.121Z,6.64
2022-11-27T04:23:03.618Z,6.63
2022-11-27T04:25:29.995Z,6.62
2022-11-27T04:27:56.728Z,6.61
2022-11-27T04:30:23.661Z,6.60
2022-11-27T04:32:50.035Z,6.58
2022-11-27T04:35:16.422Z,6.58
2022-11-27T04:37:42.836Z,6.57
2022-11-27T04:40:09.720Z,6.57
2022-11-27T04:42:36.066Z,6.54
2022-11-27T04:45:02.465Z,6.53
2022-11-27T04:47:28.858Z,6.51
2022-11-27T04:49:55.269Z,6.49
2022-11-27T04:52:21.648Z,6.48
2022-11-27T04:54:48.019Z,6.47
2022-11-27T04:57:14.452Z,6.47
2022-11-27T04:59:40.972Z,6.48
2022-11-27T05:02:07.435Z,6.49
2022-11-27T05:04:34.135Z,6.51
2022-11-27T05:07:00.635Z,6.52
2022-11-27T05:09:27.107Z,6.54
2022-11-27T05:11:53.629Z,6.55
2022-11-27T05:14:21.876Z,6.56
2022-11-27T05:16:54.461Z,6.57
2022-11-27T05:19:23.130Z,6.60
2022-11-27T05:21:50.580Z,6.63
2022-11-27T05:24:18.820Z,6.64
2022-11-27T05:26:45.372Z,6.66
2022-11-27T05:29:12.865Z,6.68
2022-11-27T05:31:40.014Z,6.69
2022-11-27T05:34:07.697Z,6.70
2022-11-27T05:36:34.988Z,6.71
2022-11-27T05:39:03.113Z,6.72
2022-11-27T05:41:30.069Z,6.73
2022-11-27T05:43:56.502Z,6.74
2022-11-27T05:46:23.370Z,6.73
2022-11-27T05:48:50.374Z,6.73
2022-11-27T05:51:17.945Z,6.73
2022-11-27T05:53:44.958Z,6.73
2022-11-27T05:56:14.257Z,6.71
2022-11-27T05:58:42.154Z,6.71
2022-11-27T06:01:10.449Z,6.70
2022-11-27T06:03:38.998Z,6.70
2022-11-27T06:06:10.473Z,6.68
2022-11-27T06:08:38.207Z,6.68
2022-11-27T06:11:21.270Z,6.68
2022-11-27T06:13:49.234Z,6.71
2022-11-27T06:16:18.648Z,6.69
2022-11-27T06:18:45.595Z,6.71
2022-11-27T06:21:14.290Z,6.72
2022-11-27T06:23:42.876Z,6.73
2022-11-27T06:26:20.943Z,6.72
2022-11-27T06:28:48.399Z,6.75
2022-11-27T06:31:18.797Z,6.74
2022-11-27T06:33:46.944Z,6.77
2022-11-27T06:36:13.507Z,6.77
2022-11-27T06:38:40.302Z,6.77
2022-11-27T06:41:09.882Z,6.78
2022-11-27T06:43:36.820Z,6.80
2022-11-27T06:46:04.618Z,6.80
2022-11-27T06:48:31.851Z,6.81
2022-11-27T06:51:03.271Z,6.80
2022-11-27T06:53:30.932Z,6.82
2022-11-27T06:55:57.677Z,6.83
2022-11-27T06:58:29.327Z,6.84
2022-11-27T07:01:03.101Z,6.83
2022-11-27T07:03:30.105Z,6.87
2022-11-27T07:06:00.311Z,6.87
2022-11-27T07:08:27.258Z,6.90
2022-11-27T07:10:54.228Z,6.91
2022-11-27T07:13:20.722Z,6.92
2022-11-27T07:15:47.289Z,6.93
2022-11-27T07:18:13.829Z,6.95
2022-11-27T07:20:40.364Z,6.97
2022-11-27T07:23:06.968Z,6.99
2022-11-27T07:25:33.501Z,7.01
2022-11-27T07:27:59.963Z,7.03
2022-11-27T07:30:26.516Z,7.06
2022-11-27T07:32:52.926Z,7.09
2022-11-27T07:35:19.518Z,7.12
2022-11-27T07:37:46.081Z,7.14
2022-11-27T07:40:14.861Z,7.17
2022-11-27T07:42:41.738Z,7.21
2022-11-27T07:45:09.462Z,7.24
2022-11-27T07:47:36.141Z,7.28
2022-11-27T07:50:02.707Z,7.31
2022-11-27T07:52:29.263Z,7.34
2022-11-27T07:54:55.794Z,7.39
2022-11-27T07:57:22.327Z,7.43
2022-11-27T07:59:48.927Z,7.46
2022-11-27T08:02:15.827Z,7.49
2022-11-27T08:04:42.582Z,7.53
2022-11-27T08:07:09.419Z,7.56
2022-11-27T08:09:35.927Z,7.59
2022-11-27T08:12:02.426Z,7.62
2022-11-27T08:14:29.020Z,7.64
2022-11-27T08:16:55.841Z,7.68
2022-11-27T08:19:22.488Z,7.71
2022-11-27T08:21:49.007Z,7.74
2022-11-27T08:24:15.705Z,7.79
2022-11-27T08:26:42.425Z,7.81
2022-11-27T08:29:12.246Z,7.84
2022-11-27T08:31:39.056Z,7.88
2022-11-27T08:34:05.977Z,7.91
2022-11-27T08:36:32.532Z,7.95
2022-11-27T08:38:59.189Z,7.99
2022-11-27T08:41:26.801Z,8.01
2022-11-27T08:43:53.301Z,8.04
2022-11-27T08:46:19.914Z,8.05
2022-11-27T08:48:46.473Z,8.07
2022-11-27T08:51:15.301Z,8.10
2022-11-27T08:53:44.409Z,8.14
2022-11-27T08:56:19.098Z,8.16
2022-11-27T08:58:45.884Z,8.25
2022-11-27T09:01:19.301Z,8.30
2022-11-27T09:03:46.794Z,8.36
2022-11-27T09:06:16.841Z,8.41
2022-11-27T09:08:43.955Z,8.47
2022-11-27T09:11:12.133Z,8.52
2022-11-27T09:13:40.244Z,8.55
2022-11-27T09:16:10.176Z,8.57
2022-11-27T09:18:37.151Z,8.62
2022-11-27T09:21:06.840Z,8.64
2022-11-27T09:23:33.870Z,8.67
2022-11-27T09:26:02.361Z,8.67
2022-11-27T09:28:31.535Z,8.68
2022-11-27T09:31:00.598Z,8.68
2022-11-27T09:33:28.926Z,8.69
2022-11-27T09:35:55.711Z,8.71
2022-11-27T09:38:23.566Z,8.74
2022-11-27T09:40:52.315Z,8.73
2022-11-27T09:43:28.455Z,8.76
2022-11-27T09:46:01.413Z,8.79
2022-11-27T09:48:33.766Z,8.81
2022-11-27T09:51:05.599Z,8.86
2022-11-27T09:53:52.568Z,8.83
2022-11-27T09:56:20.324Z,8.85
2022-11-27T09:59:00.579Z,8.81
2022-11-27T10:01:36.485Z,8.83
2022-11-27T10:04:10.891Z,8.84
2022-11-27T10:07:07.460Z,8.81
2022-11-27T10:09:40.784Z,8.85
2022-11-27T10:12:38.093Z,8.84
2022-11-27T10:15:25.386Z,8.86
2022-11-27T10:18:17.728Z,8.89
2022-11-27T10:20:49.456Z,8.93
2022-11-27T10:23:41.773Z,8.93
2022-11-27T10:26:19.065Z,8.96
2022-11-27T10:29:12.139Z,8.97
2022-11-27T10:32:01.229Z,9.02
2022-11-27T10:34:43.287Z,9.04
2022-11-27T10:37:13.018Z,9.09
2022-11-27T10:39:45.415Z,9.11
2022-11-27T10:42:22.678Z,9.15
2022-11-27T10:45:03.843Z,9.14
2022-11-27T10:47:33.849Z,9.19
2022-11-27T10:50:01.155Z,9.22
2022-11-27T10:52:27.703Z,9.24
2022-11-27T10:55:03.041Z,9.25
2022-11-27T10:57:56.135Z,9.27
2022-11-27T11:00:25.049Z,9.33
2022-11-27T11:03:17.118Z,9.31
2022-11-27T11:08:42.731Z,9.40
2022-11-27T11:11:09.804Z,9.44
2022-11-27T11:13:45.973Z,9.41
2022-11-27T11:16:14.906Z,9.49
2022-11-27T11:18:43.179Z,9.49
2022-11-27T11:21:17.226Z,9.51
2022-11-27T11:23:46.734Z,9.55
2022-11-27T11:26:19.133Z,9.58
2022-11-27T11:28:52.103Z,9.59
2022-11-27T11:31:21.924Z,9.62
2022-11-27T11:33:57.362Z,9.64
2022-11-27T11:36:23.853Z,9.70
2022-11-27T11:38:51.868Z,9.71
2022-11-27T11:41:18.878Z,9.74
2022-11-27T11:44:00.952Z,9.72
2022-11-27T11:46:32.641Z,9.78
2022-11-27T11:49:07.389Z,9.80
2022-11-27T11:51:52.441Z,9.82
2022-11-27T11:54:48.947Z,9.86
2022-11-27T11:57:34.466Z,9.85
2022-11-27T12:00:14.225Z,9.90
2022-11-27T12:03:04.938Z,9.88
2022-11-27T12:05:49.966Z,9.95
2022-11-27T12:08:54.010Z,9.92
2022-11-27T12:11:53.550Z,9.95
2022-11-27T12:14:28.586Z,10.00
2022-11-27T12:17:27.788Z,9.98
2022-11-27T12:20:09.367Z,10.02
2022-11-27T12:23:03.344Z,10.02
2022-11-27T12:25:55.968Z,10.04
2022-11-27T12:28:52.123Z,10.08
2022-11-27T12:31:43.216Z,10.11
2022-11-27T12:34:27.540Z,10.15
2022-11-27T12:37:02.973Z,10.17
2022-11-27T12:40:04.513Z,10.17
2022-11-27T12:43:07.752Z,10.19
2022-11-27T12:45:43.668Z,10.24
2022-11-27T12:48:19.785Z,10.26
2022-11-27T12:51:01.157Z,10.27
2022-11-27T12:53:45.373Z,10.31
2022-11-27T12:56:30.113Z,10.32
2022-11-27T12:59:08.251Z,10.35
2022-11-27T13:01:51.620Z,10.35
2022-11-27T13:04:22.129Z,10.40
2022-11-27T13:06:58.626Z,10.38
2022-11-27T13:09:45.614Z,10.39
2022-11-27T13:12:22.307Z,10.41
2022-11-27T13:15:00.338Z,10.42
2022-11-27T13:17:34.074Z,10.42
2022-11-27T13:20:02.420Z,10.45
2022-11-27T13:22:34.552Z,10.44
2022-11-27T13:25:02.159Z,10.46
2022-11-27T13:27:31.498Z,10.47
2022-11-27T13:30:05.401Z,10.46
2022-11-27T13:32:38.090Z,10.47
2022-11-27T13:35:16.797Z,10.47
2022-11-27T13:37:45.087Z,10.50
2022-11-27T13:40:20.943Z,10.47
2022-11-27T13:42:55.366Z,10.47
2022-11-27T13:45:31.035Z,10.46
2022-11-27T13:47:59.704Z,10.50
2022-11-27T13:50:31.074Z,10.50
2022-11-27T13:53:05.898Z,10.51
2022-11-27T13:55:35.585Z,10.50
2022-11-27T13:58:03.572Z,10.50
2022-11-27T14:00:40.878Z,10.50
2022-11-27T14:03:20.152Z,10.50
2022-11-27T14:05:46.564Z,10.52
2022-11-27T14:08:26.840Z,10.51
2022-11-27T14:10:58.417Z,10.55
2022-11-27T14:13:54.218Z,10.53
2022-11-27T14:16:33.094Z,10.54
2022-11-27T14:19:06.825Z,10.57
2022-11-27T14:21:38.877Z,10.61
2022-11-27T14:24:33.278Z,10.55
2022-11-27T14:26:59.727Z,10.60
2022-11-27T14:29:30.088Z,10.59
2022-11-27T14:32:01.798Z,10.58
2022-11-27T14:34:33.178Z,10.57
2022-11-27T14:37:00.651Z,10.58
2022-11-27T14:39:35.431Z,10.54
2022-11-27T14:42:07.794Z,10.55
2022-11-27T14:44:35.047Z,10.56
2022-11-27T14:47:05.359Z,10.55
2022-11-27T14:49:33.023Z,10.54
2022-11-27T14:52:06.815Z,10.51
2022-11-27T14:54:37.023Z,10.52
2022-11-27T14:57:05.052Z,10.49
2022-11-27T14:59:31.537Z,10.48
2022-11-27T15:02:18.653Z,10.41
2022-11-27T15:04:46.520Z,10.43
2022-11-27T15:07:20.571Z,10.39
2022-11-27T15:09:50.167Z,10.39
2022-11-27T15:12:21.746Z,10.37
2022-11-27T15:14:59.761Z,10.34
2022-11-27T15:17:29.897Z,10.34
2022-11-27T15:19:58.024Z,10.33
2022-11-27T15:22:24.676Z,10.31
2022-11-27T15:25:06.981Z,10.27
2022-11-27T15:27:53.586Z,10.24
2022-11-27T15:30:20.260Z,10.28
2022-11-27T15:32:51.901Z,10.25
2022-11-27T15:35:36.854Z,10.20
2022-11-27T15:38:10.602Z,10.22
2022-11-27T15:40:41.038Z,10.21
2022-11-27T15:43:13.262Z,10.18
2022-11-27T15:45:40.609Z,10.19
2022-11-27T15:48:18.936Z,10.13
2022-11-27T15:50:51.335Z,10.19
2022-11-27T15:53:18.357Z,10.17
2022-11-27T15:55:44.793Z,10.21
2022-11-27T15:58:11.246Z,10.19
2022-11-27T16:00:37.719Z,10.17
2022-11-27T16:03:04.140Z,10.16
2022-11-27T16:05:30.564Z,10.15
2022-11-27T16:07:57.583Z,10.15
2022-11-27T16:10:24.230Z,10.17
2022-11-27T16:12:54.761Z,10.15
2022-11-27T16:15:23.221Z,10.16
2022-11-27T16:17:50.550Z,10.19
2022-11-27T16:20:17.118Z,10.18
2022-11-27T16:22:43.499Z,10.18
2022-11-27T16:25:09.991Z,10.20
2022-11-27T16:27:36.400Z,10.19
2022-11-27T16:30:02.906Z,10.20
2022-11-27T16:32:29.236Z,10.20
2022-11-27T16:34:55.611Z,10.20
2022-11-27T16:37:22.200Z,10.19
2022-11-27T16:39:48.621Z,10.20
2022-11-27T16:42:15.019Z,10.19
2022-11-27T16:44:43.274Z,10.19
2022-11-27T16:47:09.954Z,10.20
2022-11-27T16:49:36.304Z,10.18
2022-11-27T16:52:03.049Z,10.17
2022-11-27T16:54:29.424Z,10.15
2022-11-27T16:56:55.864Z,10.15
2022-11-27T16:59:22.226Z,10.12
2022-11-27T17:01:48.819Z,10.11
2022-11-27T17:04:20.072Z,10.06
2022-11-27T17:06:48.586Z,10.06
2022-11-27T17:09:15.943Z,10.04
2022-11-27T17:11:44.983Z,10.03
2022-11-27T17:14:11.770Z,10.03
2022-11-27T17:16:41.326Z,10.01
2022-11-27T17:19:11.472Z,10.00
2022-11-27T17:21:38.279Z,9.99
2022-11-27T17:24:15.234Z,9.97
2022-11-27T17:26:43.678Z,9.96
2022-11-27T17:29:15.228Z,9.94
2022-11-27T17:31:42.100Z,9.95
2022-11-27T17:34:11.735Z,9.93
2022-11-27T17:36:40.713Z,9.91
2022-11-27T17:39:07.239Z,9.90
2022-11-27T17:41:34.391Z,9.88
2022-11-27T17:44:04.103Z,9.86
2022-11-27T17:46:30.787Z,9.86
2022-11-27T17:49:00.416Z,9.83
2022-11-27T17:51:29.446Z,9.81
2022-11-27T17:54:00.750Z,9.78
2022-11-27T17:56:28.232Z,9.78
2022-11-27T17:58:55.201Z,9.76
2022-11-27T18:01:25.018Z,9.74
2022-11-27T18:03:54.116Z,9.75
2022-11-27T18:06:22.744Z,9.73
2022-11-27T18:08:49.490Z,9.71
2022-11-27T18:11:18.689Z,9.69
2022-11-27T18:13:45.463Z,9.69
2022-11-27T18:16:17.112Z,9.65
2022-11-27T18:18:43.997Z,9.65
2022-11-27T18:21:18.563Z,9.63
2022-11-27T18:24:14.923Z,9.62
2022-11-27T18:27:00.573Z,9.61
2022-11-27T18:29:21.370Z,9.60
2022-11-27T18:31:48.034Z,9.58
2022-11-27T18:34:14.665Z,9.56
2022-11-27T18:36:42.194Z,9.56
2022-11-27T18:39:08.690Z,9.56
2022-11-27T18:41:35.258Z,9.55
2022-11-27T18:44:01.747Z,9.53
2022-11-27T18:46:28.518Z,9.52
2022-11-27T18:48:55.327Z,9.51
2022-11-27T18:51:23.911Z,9.51
2022-11-27T18:53:51.911Z,9.50
2022-11-27T18:56:24.307Z,9.49
2022-11-27T18:58:51.253Z,9.48
2022-11-27T19:01:23.015Z,9.48
2022-11-27T19:03:49.915Z,9.47
2022-11-27T19:06:18.151Z,9.46
2022-11-27T19:08:45.733Z,9.46
2022-11-27T19:11:15.097Z,9.46
2022-11-27T19:13:43.217Z,9.43
2022-11-27T19:16:12.904Z,9.41
2022-11-27T19:18:39.867Z,9.42
2022-11-27T19:21:10.579Z,9.39
2022-11-27T19:23:39.340Z,9.39
2022-11-27T19:26:14.471Z,9.36
2022-11-27T19:28:41.760Z,9.38
2022-11-27T19:31:10.386Z,9.37
2022-11-27T19:33:37.784Z,9.37
2022-11-27T19:36:08.680Z,9.36
2022-11-27T19:38:36.109Z,9.37
2022-11-27T19:41:04.271Z,9.36
2022-11-27T19:43:30.675Z,9.35
2022-11-27T19:45:57.232Z,9.35
2022-11-27T19:48:23.932Z,9.33
2022-11-27T19:50:51.744Z,9.32
2022-11-27T19:53:18.886Z,9.31
2022-11-27T19:55:53.054Z,9.27
2022-11-27T19:58:19.578Z,9.28
2022-11-27T20:00:46.161Z,9.27
2022-11-27T20:03:12.758Z,9.24
2022-11-27T20:05:39.220Z,9.24
2022-11-27T20:08:05.842Z,9.24
2022-11-27T20:10:32.407Z,9.22
2022-11-27T20:13:02.459Z,9.20
2022-11-27T20:15:29.645Z,9.21
2022-11-27T20:17:56.182Z,9.20
2022-11-27T20:20:22.736Z,9.19
2022-11-27T20:22:50.289Z,9.18
2022-11-27T20:25:19.891Z,9.17
2022-11-27T20:27:47.017Z,9.17
2022-11-27T20:30:13.960Z,9.18
2022-11-27T20:32:40.446Z,9.16
2022-11-27T20:35:07.259Z,9.16
2022-11-27T20:37:34.001Z,9.16
2022-11-27T20:40:00.600Z,9.15
2022-11-27T20:42:27.111Z,9.15
2022-11-27T20:44:53.757Z,9.16
2022-11-27T20:47:20.321Z,9.16
2022-11-27T20:49:46.897Z,9.16
2022-11-27T20:52:14.753Z,9.16
2022-11-27T20:54:41.356Z,9.16
2022-11-27T20:57:13.878Z,9.15
2022-11-27T20:59:41.672Z,9.15
2022-11-27T21:02:12.666Z,9.14
2022-11-27T21:04:39.280Z,9.15
2022-11-27T21:07:06.413Z,9.14
2022-11-27T21:09:33.272Z,9.13
2022-11-27T21:12:00.201Z,9.14
2022-11-27T21:14:26.849Z,9.13
2022-11-27T21:16:54.369Z,9.12
2022-11-27T21:19:24.478Z,9.10
2022-11-27T21:21:52.465Z,9.11
2022-11-27T21:24:19.745Z,9.10
2022-11-27T21:26:47.077Z,9.11
2022-11-27T21:29:14.066Z,9.11
2022-11-27T21:31:46.361Z,9.10
2022-11-27T21:34:13.334Z,9.12
2022-11-27T21:36:39.883Z,9.13
2022-11-27T21:39:09.216Z,9.12
2022-11-27T21:41:36.530Z,9.13
2022-11-27T21:44:04.070Z,9.13
2022-11-27T21:46:31.715Z,9.13
2022-11-27T21:49:00.828Z,9.12
2022-11-27T21:51:28.904Z,9.11
2022-11-27T21:53:56.488Z,9.11
2022-11-27T21:56:26.854Z,9.10
2022-11-27T21:58:53.664Z,9.11
2022-11-27T22:01:23.024Z,9.09
2022-11-27T22:03:54.255Z,9.10
2022-11-27T22:06:22.961Z,9.09
2022-11-27T22:08:50.527Z,9.09
2022-11-27T22:11:23.023Z,9.08
2022-11-27T22:13:50.048Z,9.10
2022-11-27T22:16:19.767Z,9.09
2022-11-27T22:18:47.155Z,9.09
2022-11-27T22:21:14.445Z,9.08
2022-11-27T22:23:41.736Z,9.08
2022-11-27T22:26:11.766Z,9.07
2022-11-27T22:28:38.885Z,9.08
2022-11-27T22:31:17.222Z,9.06
2022-11-27T22:33:45.227Z,9.08
2022-11-27T22:36:21.782Z,9.06
2022-11-27T22:38:50.834Z,9.07
2022-11-27T22:41:19.419Z,9.06
2022-11-27T22:43:46.301Z,9.06
2022-11-27T22:46:28.251Z,9.03
2022-11-27T22:48:58.062Z,9.05
2022-11-27T22:51:25.771Z,9.06
2022-11-27T22:53:52.394Z,9.06
2022-11-27T22:56:19.510Z,9.07
2022-11-27T22:58:46.112Z,9.07
2022-11-27T23:04:22.579Z,9.09
2022-11-27T23:06:49.072Z,9.08
2022-11-27T23:09:17.931Z,9.08
2022-11-27T23:11:46.602Z,9.07
2022-11-27T23:14:13.403Z,9.07
2022-11-27T23:16:39.915Z,9.06
2022-11-27T23:19:06.509Z,9.06
2022-11-27T23:21:37.148Z,9.07
2022-11-27T23:24:04.791Z,9.06
2022-11-27T23:26:31.803Z,9.06
2022-11-27T23:28:58.320Z,9.06
2022-11-27T23:31:30.284Z,9.08
2022-11-27T23:33:57.866Z,9.09
2022-11-27T23:36:24.632Z,9.10
2022-11-27T23:38:51.006Z,9.10
2022-11-27T23:41:21.594Z,9.10
2022-11-27T23:43:48.621Z,9.12
2022-11-27T23:46:17.407Z,9.13
2022-11-27T23:48:44.603Z,9.13
2022-11-27T23:51:20.340Z,9.13
2022-11-27T23:53:47.516Z,9.15
2022-11-27T23:56:17.220Z,9.16
2022-11-27T23:58:46.938Z,9.18
